sensor_id;sensor_type;location;lat;lon;timestamp;P1;durP1;ratioP1;P2;durP2;ratioP2
34695;SDS011;20918;51.138;17.370;2022-10-19T00:00:03;21.17;;;12.30;;
34695;SDS011;20918;51.138;17.370;2022-10-19T00:03:05;17.60;;;12.68;;
34695;SDS011;20918;51.138;17.370;2022-10-19T00:09:33;15.25;;;12.05;;
34695;SDS011;20918;51.138;17.370;2022-10-19T00:12:34;16.85;;;12.45;;
34695;SDS011;20918;51.138;17.370;2022-10-19T00:15:39;15.32;;;11.45;;
34695;SDS011;20918;51.138;17.370;2022-10-19T00:18:41;16.55;;;11.60;;
34695;SDS011;20918;51.138;17.370;2022-10-19T00:21:44;20.82;;;13.28;;
34695;SDS011;20918;51.138;17.370;2022-10-19T00:24:45;22.32;;;11.50;;
34695;SDS011;20918;51.138;17.370;2022-10-19T00:27:46;18.85;;;12.60;;
34695;SDS011;20918;51.138;17.370;2022-10-19T00:30:48;22.02;;;13.50;;
34695;SDS011;20918;51.138;17.370;2022-10-19T00:33:49;20.30;;;13.35;;
34695;SDS011;20918;51.138;17.370;2022-10-19T00:36:50;20.30;;;14.15;;
34695;SDS011;20918;51.138;17.370;2022-10-19T00:39:51;19.77;;;14.25;;
34695;SDS011;20918;51.138;17.370;2022-10-19T00:42:55;20.72;;;14.10;;
34695;SDS011;20918;51.138;17.370;2022-10-19T00:45:57;20.37;;;15.75;;
34695;SDS011;20918;51.138;17.370;2022-10-19T00:49:03;24.82;;;14.03;;
34695;SDS011;20918;51.138;17.370;2022-10-19T00:52:12;20.08;;;14.98;;
34695;SDS011;20918;51.138;17.370;2022-10-19T00:55:16;22.67;;;16.05;;
34695;SDS011;20918;51.138;17.370;2022-10-19T00:58:17;24.05;;;16.02;;
34695;SDS011;20918;51.138;17.370;2022-10-19T01:01:19;23.52;;;14.70;;
34695;SDS011;20918;51.138;17.370;2022-10-19T01:04:23;29.02;;;15.48;;
34695;SDS011;20918;51.138;17.370;2022-10-19T01:07:26;21.75;;;14.58;;
34695;SDS011;20918;51.138;17.370;2022-10-19T01:10:34;24.75;;;15.10;;
34695;SDS011;20918;51.138;17.370;2022-10-19T01:14:09;26.85;;;15.45;;
34695;SDS011;20918;51.138;17.370;2022-10-19T01:17:33;22.62;;;16.10;;
34695;SDS011;20918;51.138;17.370;2022-10-19T01:27:43;20.40;;;15.23;;
34695;SDS011;20918;51.138;17.370;2022-10-19T01:37:48;24.90;;;16.87;;
34695;SDS011;20918;51.138;17.370;2022-10-19T01:41:08;22.40;;;17.75;;
34695;SDS011;20918;51.138;17.370;2022-10-19T01:51:03;25.68;;;16.52;;
34695;SDS011;20918;51.138;17.370;2022-10-19T01:54:15;25.62;;;15.83;;
34695;SDS011;20918;51.138;17.370;2022-10-19T01:57:25;25.23;;;16.25;;
34695;SDS011;20918;51.138;17.370;2022-10-19T02:00:34;23.40;;;16.50;;
34695;SDS011;20918;51.138;17.370;2022-10-19T02:03:38;26.17;;;18.00;;
34695;SDS011;20918;51.138;17.370;2022-10-19T02:06:40;27.37;;;18.32;;
34695;SDS011;20918;51.138;17.370;2022-10-19T02:09:41;30.55;;;19.80;;
34695;SDS011;20918;51.138;17.370;2022-10-19T02:12:42;26.48;;;19.65;;
34695;SDS011;20918;51.138;17.370;2022-10-19T02:15:45;33.50;;;21.93;;
34695;SDS011;20918;51.138;17.370;2022-10-19T02:18:50;29.25;;;21.57;;
34695;SDS011;20918;51.138;17.370;2022-10-19T02:21:55;31.87;;;19.52;;
34695;SDS011;20918;51.138;17.370;2022-10-19T02:24:56;38.30;;;21.90;;
34695;SDS011;20918;51.138;17.370;2022-10-19T02:27:58;33.18;;;20.37;;
34695;SDS011;20918;51.138;17.370;2022-10-19T02:31:01;35.00;;;19.98;;
34695;SDS011;20918;51.138;17.370;2022-10-19T02:34:02;32.93;;;20.50;;
34695;SDS011;20918;51.138;17.370;2022-10-19T02:37:04;37.53;;;20.43;;
34695;SDS011;20918;51.138;17.370;2022-10-19T02:40:06;30.08;;;21.00;;
34695;SDS011;20918;51.138;17.370;2022-10-19T02:43:10;31.65;;;21.75;;
34695;SDS011;20918;51.138;17.370;2022-10-19T02:46:31;24.95;;;19.85;;
34695;SDS011;20918;51.138;17.370;2022-10-19T02:49:43;33.45;;;21.20;;
34695;SDS011;20918;51.138;17.370;2022-10-19T02:52:46;28.73;;;19.80;;
34695;SDS011;20918;51.138;17.370;2022-10-19T02:55:48;28.25;;;19.52;;
34695;SDS011;20918;51.138;17.370;2022-10-19T02:58:50;34.50;;;19.10;;
34695;SDS011;20918;51.138;17.370;2022-10-19T03:01:53;31.35;;;19.77;;
34695;SDS011;20918;51.138;17.370;2022-10-19T03:04:54;30.43;;;18.92;;
34695;SDS011;20918;51.138;17.370;2022-10-19T03:07:58;28.12;;;19.30;;
34695;SDS011;20918;51.138;17.370;2022-10-19T03:10:59;31.68;;;19.73;;
34695;SDS011;20918;51.138;17.370;2022-10-19T03:14:01;32.30;;;20.43;;
34695;SDS011;20918;51.138;17.370;2022-10-19T03:17:02;28.45;;;20.45;;
34695;SDS011;20918;51.138;17.370;2022-10-19T03:20:04;30.35;;;20.20;;
34695;SDS011;20918;51.138;17.370;2022-10-19T03:23:07;36.58;;;20.97;;
34695;SDS011;20918;51.138;17.370;2022-10-19T03:26:10;37.58;;;21.57;;
34695;SDS011;20918;51.138;17.370;2022-10-19T03:29:17;30.77;;;20.92;;
34695;SDS011;20918;51.138;17.370;2022-10-19T03:32:19;28.20;;;20.45;;
34695;SDS011;20918;51.138;17.370;2022-10-19T03:35:20;35.60;;;21.37;;
34695;SDS011;20918;51.138;17.370;2022-10-19T03:38:21;30.35;;;20.88;;
34695;SDS011;20918;51.138;17.370;2022-10-19T03:41:23;32.55;;;21.33;;
34695;SDS011;20918;51.138;17.370;2022-10-19T03:44:28;32.17;;;20.95;;
34695;SDS011;20918;51.138;17.370;2022-10-19T03:47:29;30.50;;;20.00;;
34695;SDS011;20918;51.138;17.370;2022-10-19T03:50:30;30.75;;;20.50;;
34695;SDS011;20918;51.138;17.370;2022-10-19T03:53:31;31.82;;;20.82;;
34695;SDS011;20918;51.138;17.370;2022-10-19T03:56:33;34.15;;;20.08;;
34695;SDS011;20918;51.138;17.370;2022-10-19T03:59:35;34.00;;;20.85;;
34695;SDS011;20918;51.138;17.370;2022-10-19T04:02:36;28.45;;;20.60;;
34695;SDS011;20918;51.138;17.370;2022-10-19T04:05:37;30.80;;;20.68;;
34695;SDS011;20918;51.138;17.370;2022-10-19T04:08:38;33.28;;;20.90;;
34695;SDS011;20918;51.138;17.370;2022-10-19T04:11:40;36.63;;;21.12;;
34695;SDS011;20918;51.138;17.370;2022-10-19T04:14:42;31.20;;;20.80;;
34695;SDS011;20918;51.138;17.370;2022-10-19T04:17:43;30.62;;;19.80;;
34695;SDS011;20918;51.138;17.370;2022-10-19T04:20:44;34.48;;;21.45;;
34695;SDS011;20918;51.138;17.370;2022-10-19T04:23:45;34.03;;;20.52;;
34695;SDS011;20918;51.138;17.370;2022-10-19T04:26:47;34.48;;;21.20;;
34695;SDS011;20918;51.138;17.370;2022-10-19T04:29:52;35.68;;;22.02;;
34695;SDS011;20918;51.138;17.370;2022-10-19T04:32:54;38.08;;;22.58;;
34695;SDS011;20918;51.138;17.370;2022-10-19T04:36:03;37.73;;;22.15;;
34695;SDS011;20918;51.138;17.370;2022-10-19T04:39:02;39.80;;;20.92;;
34695;SDS011;20918;51.138;17.370;2022-10-19T04:42:04;36.80;;;22.10;;
34695;SDS011;20918;51.138;17.370;2022-10-19T04:45:06;30.52;;;22.30;;
34695;SDS011;20918;51.138;17.370;2022-10-19T04:48:07;40.48;;;24.10;;
34695;SDS011;20918;51.138;17.370;2022-10-19T04:51:09;35.35;;;21.75;;
34695;SDS011;20918;51.138;17.370;2022-10-19T04:54:10;42.17;;;22.10;;
34695;SDS011;20918;51.138;17.370;2022-10-19T04:57:11;35.88;;;21.57;;
34695;SDS011;20918;51.138;17.370;2022-10-19T05:00:13;36.13;;;21.35;;
34695;SDS011;20918;51.138;17.370;2022-10-19T05:03:17;38.48;;;21.10;;
34695;SDS011;20918;51.138;17.370;2022-10-19T05:06:18;32.90;;;20.95;;
34695;SDS011;20918;51.138;17.370;2022-10-19T05:09:19;35.08;;;21.40;;
34695;SDS011;20918;51.138;17.370;2022-10-19T05:12:28;36.38;;;22.32;;
34695;SDS011;20918;51.138;17.370;2022-10-19T05:15:27;34.23;;;21.52;;
34695;SDS011;20918;51.138;17.370;2022-10-19T05:18:34;34.15;;;22.40;;
34695;SDS011;20918;51.138;17.370;2022-10-19T05:21:34;37.10;;;23.25;;
34695;SDS011;20918;51.138;17.370;2022-10-19T05:24:35;39.98;;;21.82;;
34695;SDS011;20918;51.138;17.370;2022-10-19T05:27:37;35.50;;;22.52;;
34695;SDS011;20918;51.138;17.370;2022-10-19T05:30:39;34.48;;;21.57;;
34695;SDS011;20918;51.138;17.370;2022-10-19T05:33:40;33.88;;;22.22;;
34695;SDS011;20918;51.138;17.370;2022-10-19T05:36:43;34.45;;;20.97;;
34695;SDS011;20918;51.138;17.370;2022-10-19T05:39:44;30.12;;;19.70;;
34695;SDS011;20918;51.138;17.370;2022-10-19T05:42:45;31.05;;;19.30;;
34695;SDS011;20918;51.138;17.370;2022-10-19T05:45:46;28.15;;;18.67;;
34695;SDS011;20918;51.138;17.370;2022-10-19T05:48:47;30.85;;;17.55;;
34695;SDS011;20918;51.138;17.370;2022-10-19T05:51:48;27.90;;;17.45;;
34695;SDS011;20918;51.138;17.370;2022-10-19T05:54:50;26.33;;;16.95;;
34695;SDS011;20918;51.138;17.370;2022-10-19T05:57:53;27.67;;;16.17;;
34695;SDS011;20918;51.138;17.370;2022-10-19T06:00:55;29.87;;;15.80;;
34695;SDS011;20918;51.138;17.370;2022-10-19T06:03:58;24.65;;;14.45;;
34695;SDS011;20918;51.138;17.370;2022-10-19T06:07:01;20.35;;;15.28;;
34695;SDS011;20918;51.138;17.370;2022-10-19T06:10:02;22.73;;;14.90;;
34695;SDS011;20918;51.138;17.370;2022-10-19T06:13:03;20.43;;;13.43;;
34695;SDS011;20918;51.138;17.370;2022-10-19T06:16:08;23.38;;;13.08;;
34695;SDS011;20918;51.138;17.370;2022-10-19T06:19:10;19.37;;;12.47;;
34695;SDS011;20918;51.138;17.370;2022-10-19T06:22:12;21.68;;;11.43;;
34695;SDS011;20918;51.138;17.370;2022-10-19T06:25:13;16.57;;;10.88;;
34695;SDS011;20918;51.138;17.370;2022-10-19T06:28:14;24.98;;;10.60;;
34695;SDS011;20918;51.138;17.370;2022-10-19T06:31:15;16.62;;;9.78;;
34695;SDS011;20918;51.138;17.370;2022-10-19T06:34:17;17.70;;;9.68;;
34695;SDS011;20918;51.138;17.370;2022-10-19T06:37:18;14.50;;;8.93;;
34695;SDS011;20918;51.138;17.370;2022-10-19T06:40:19;15.10;;;8.45;;
34695;SDS011;20918;51.138;17.370;2022-10-19T06:43:20;14.80;;;8.25;;
34695;SDS011;20918;51.138;17.370;2022-10-19T06:46:22;18.32;;;8.53;;
34695;SDS011;20918;51.138;17.370;2022-10-19T06:49:25;19.82;;;8.80;;
34695;SDS011;20918;51.138;17.370;2022-10-19T06:52:27;14.80;;;7.47;;
34695;SDS011;20918;51.138;17.370;2022-10-19T06:55:28;17.27;;;7.90;;
34695;SDS011;20918;51.138;17.370;2022-10-19T06:58:29;12.33;;;7.42;;
34695;SDS011;20918;51.138;17.370;2022-10-19T07:01:30;15.13;;;8.08;;
34695;SDS011;20918;51.138;17.370;2022-10-19T07:04:31;17.40;;;8.40;;
34695;SDS011;20918;51.138;17.370;2022-10-19T07:07:33;11.85;;;7.03;;
34695;SDS011;20918;51.138;17.370;2022-10-19T07:10:35;13.48;;;7.10;;
34695;SDS011;20918;51.138;17.370;2022-10-19T07:13:36;10.68;;;6.58;;
34695;SDS011;20918;51.138;17.370;2022-10-19T07:16:38;12.65;;;6.33;;
34695;SDS011;20918;51.138;17.370;2022-10-19T07:19:39;16.60;;;7.70;;
34695;SDS011;20918;51.138;17.370;2022-10-19T07:22:40;19.12;;;6.83;;
34695;SDS011;20918;51.138;17.370;2022-10-19T07:25:42;12.78;;;6.40;;
34695;SDS011;20918;51.138;17.370;2022-10-19T07:28:43;13.35;;;5.22;;
34695;SDS011;20918;51.138;17.370;2022-10-19T07:31:47;12.15;;;6.17;;
34695;SDS011;20918;51.138;17.370;2022-10-19T07:34:48;10.45;;;5.22;;
34695;SDS011;20918;51.138;17.370;2022-10-19T07:37:52;10.53;;;5.12;;
34695;SDS011;20918;51.138;17.370;2022-10-19T07:40:58;15.30;;;5.85;;
34695;SDS011;20918;51.138;17.370;2022-10-19T07:44:06;13.62;;;5.50;;
34695;SDS011;20918;51.138;17.370;2022-10-19T07:47:08;10.30;;;4.90;;
34695;SDS011;20918;51.138;17.370;2022-10-19T07:50:09;16.40;;;5.85;;
34695;SDS011;20918;51.138;17.370;2022-10-19T07:53:15;12.13;;;4.80;;
34695;SDS011;20918;51.138;17.370;2022-10-19T07:56:19;11.48;;;5.22;;
34695;SDS011;20918;51.138;17.370;2022-10-19T07:59:23;17.92;;;4.90;;
34695;SDS011;20918;51.138;17.370;2022-10-19T08:02:24;10.10;;;5.03;;
34695;SDS011;20918;51.138;17.370;2022-10-19T08:05:25;8.28;;;4.83;;
34695;SDS011;20918;51.138;17.370;2022-10-19T08:08:26;11.73;;;4.95;;
34695;SDS011;20918;51.138;17.370;2022-10-19T08:11:29;10.13;;;5.30;;
34695;SDS011;20918;51.138;17.370;2022-10-19T08:14:33;12.05;;;4.90;;
34695;SDS011;20918;51.138;17.370;2022-10-19T08:17:34;8.70;;;4.72;;
34695;SDS011;20918;51.138;17.370;2022-10-19T08:20:42;9.93;;;4.42;;
34695;SDS011;20918;51.138;17.370;2022-10-19T08:23:43;8.68;;;4.40;;
34695;SDS011;20918;51.138;17.370;2022-10-19T08:26:45;8.68;;;4.37;;
34695;SDS011;20918;51.138;17.370;2022-10-19T08:29:49;11.63;;;4.72;;
34695;SDS011;20918;51.138;17.370;2022-10-19T08:32:51;16.32;;;4.92;;
34695;SDS011;20918;51.138;17.370;2022-10-19T08:35:52;10.60;;;4.65;;
34695;SDS011;20918;51.138;17.370;2022-10-19T08:38:56;8.58;;;4.28;;
34695;SDS011;20918;51.138;17.370;2022-10-19T08:48:31;10.03;;;4.30;;
34695;SDS011;20918;51.138;17.370;2022-10-19T08:51:37;12.45;;;4.35;;
34695;SDS011;20918;51.138;17.370;2022-10-19T08:54:53;7.70;;;3.42;;
34695;SDS011;20918;51.138;17.370;2022-10-19T08:58:02;12.23;;;4.08;;
34695;SDS011;20918;51.138;17.370;2022-10-19T09:04:59;6.65;;;2.87;;
34695;SDS011;20918;51.138;17.370;2022-10-19T09:08:14;5.28;;;2.92;;
34695;SDS011;20918;51.138;17.370;2022-10-19T09:11:24;12.60;;;3.77;;
34695;SDS011;20918;51.138;17.370;2022-10-19T09:14:44;8.85;;;3.30;;
34695;SDS011;20918;51.138;17.370;2022-10-19T09:18:08;11.85;;;3.22;;
34695;SDS011;20918;51.138;17.370;2022-10-19T09:21:28;8.23;;;3.12;;
34695;SDS011;20918;51.138;17.370;2022-10-19T09:24:55;7.33;;;2.62;;
34695;SDS011;20918;51.138;17.370;2022-10-19T09:31:37;7.35;;;2.20;;
34695;SDS011;20918;51.138;17.370;2022-10-19T09:34:48;5.83;;;2.15;;
34695;SDS011;20918;51.138;17.370;2022-10-19T09:37:53;6.75;;;2.60;;
34695;SDS011;20918;51.138;17.370;2022-10-19T09:41:00;2.70;;;1.77;;
34695;SDS011;20918;51.138;17.370;2022-10-19T09:44:17;6.12;;;1.92;;
34695;SDS011;20918;51.138;17.370;2022-10-19T09:50:38;3.50;;;2.00;;
34695;SDS011;20918;51.138;17.370;2022-10-19T09:53:44;4.03;;;1.75;;
34695;SDS011;20918;51.138;17.370;2022-10-19T09:56:54;5.58;;;1.72;;
34695;SDS011;20918;51.138;17.370;2022-10-19T09:59:56;6.70;;;1.85;;
34695;SDS011;20918;51.138;17.370;2022-10-19T10:02:57;1.85;;;1.30;;
34695;SDS011;20918;51.138;17.370;2022-10-19T10:06:15;4.17;;;1.40;;
34695;SDS011;20918;51.138;17.370;2022-10-19T10:09:17;3.77;;;1.57;;
34695;SDS011;20918;51.138;17.370;2022-10-19T10:12:26;3.77;;;1.20;;
34695;SDS011;20918;51.138;17.370;2022-10-19T10:15:28;5.83;;;2.08;;
34695;SDS011;20918;51.138;17.370;2022-10-19T10:18:37;4.45;;;1.90;;
34695;SDS011;20918;51.138;17.370;2022-10-19T10:21:58;4.12;;;1.80;;
34695;SDS011;20918;51.138;17.370;2022-10-19T10:24:59;5.78;;;1.67;;
34695;SDS011;20918;51.138;17.370;2022-10-19T10:28:04;4.45;;;1.45;;
34695;SDS011;20918;51.138;17.370;2022-10-19T10:31:26;5.33;;;1.70;;
34695;SDS011;20918;51.138;17.370;2022-10-19T10:34:30;5.17;;;3.20;;
34695;SDS011;20918;51.138;17.370;2022-10-19T10:37:45;6.42;;;1.92;;
34695;SDS011;20918;51.138;17.370;2022-10-19T10:40:48;4.37;;;2.05;;
34695;SDS011;20918;51.138;17.370;2022-10-19T10:44:07;6.17;;;1.82;;
34695;SDS011;20918;51.138;17.370;2022-10-19T10:47:21;2.25;;;1.30;;
34695;SDS011;20918;51.138;17.370;2022-10-19T10:50:28;5.90;;;1.57;;
34695;SDS011;20918;51.138;17.370;2022-10-19T10:56:53;2.40;;;1.07;;
34695;SDS011;20918;51.138;17.370;2022-10-19T11:03:19;4.03;;;1.37;;
34695;SDS011;20918;51.138;17.370;2022-10-19T11:06:28;5.37;;;1.87;;
34695;SDS011;20918;51.138;17.370;2022-10-19T11:09:35;12.00;;;2.25;;
34695;SDS011;20918;51.138;17.370;2022-10-19T11:12:43;2.90;;;1.50;;
34695;SDS011;20918;51.138;17.370;2022-10-19T11:15:50;2.50;;;1.25;;
34695;SDS011;20918;51.138;17.370;2022-10-19T11:18:57;5.12;;;1.50;;
34695;SDS011;20918;51.138;17.370;2022-10-19T11:22:24;3.10;;;1.12;;
34695;SDS011;20918;51.138;17.370;2022-10-19T11:28:50;3.62;;;1.30;;
34695;SDS011;20918;51.138;17.370;2022-10-19T11:32:01;2.52;;;1.42;;
34695;SDS011;20918;51.138;17.370;2022-10-19T11:35:14;6.42;;;1.85;;
34695;SDS011;20918;51.138;17.370;2022-10-19T11:41:54;2.35;;;1.25;;
34695;SDS011;20918;51.138;17.370;2022-10-19T11:52:18;3.92;;;1.65;;
34695;SDS011;20918;51.138;17.370;2022-10-19T11:55:52;1.80;;;1.30;;
34695;SDS011;20918;51.138;17.370;2022-10-19T12:02:53;4.12;;;1.67;;
34695;SDS011;20918;51.138;17.370;2022-10-19T12:06:28;2.80;;;1.30;;
34695;SDS011;20918;51.138;17.370;2022-10-19T12:13:25;3.98;;;1.15;;
34695;SDS011;20918;51.138;17.370;2022-10-19T12:16:43;3.27;;;1.30;;
34695;SDS011;20918;51.138;17.370;2022-10-19T12:19:49;1.90;;;1.22;;
34695;SDS011;20918;51.138;17.370;2022-10-19T12:22:56;7.67;;;1.70;;
34695;SDS011;20918;51.138;17.370;2022-10-19T12:26:00;4.80;;;1.80;;
34695;SDS011;20918;51.138;17.370;2022-10-19T12:29:05;7.08;;;2.40;;
34695;SDS011;20918;51.138;17.370;2022-10-19T12:32:14;3.58;;;1.57;;
34695;SDS011;20918;51.138;17.370;2022-10-19T12:39:10;1.95;;;1.07;;
34695;SDS011;20918;51.138;17.370;2022-10-19T12:45:42;4.72;;;2.25;;
34695;SDS011;20918;51.138;17.370;2022-10-19T12:48:35;3.27;;;1.70;;
34695;SDS011;20918;51.138;17.370;2022-10-19T12:51:44;4.72;;;2.05;;
34695;SDS011;20918;51.138;17.370;2022-10-19T12:54:46;4.45;;;1.87;;
34695;SDS011;20918;51.138;17.370;2022-10-19T12:57:48;5.47;;;1.65;;
34695;SDS011;20918;51.138;17.370;2022-10-19T13:01:00;1.95;;;1.50;;
34695;SDS011;20918;51.138;17.370;2022-10-19T13:07:35;3.40;;;2.20;;
34695;SDS011;20918;51.138;17.370;2022-10-19T13:10:36;3.20;;;1.90;;
34695;SDS011;20918;51.138;17.370;2022-10-19T13:13:57;4.33;;;1.80;;
34695;SDS011;20918;51.138;17.370;2022-10-19T13:17:02;4.47;;;1.77;;
34695;SDS011;20918;51.138;17.370;2022-10-19T13:23:35;3.33;;;1.98;;
34695;SDS011;20918;51.138;17.370;2022-10-19T13:26:34;3.60;;;1.95;;
34695;SDS011;20918;51.138;17.370;2022-10-19T13:32:43;6.53;;;2.70;;
34695;SDS011;20918;51.138;17.370;2022-10-19T13:35:48;5.42;;;2.00;;
34695;SDS011;20918;51.138;17.370;2022-10-19T13:39:03;4.20;;;1.82;;
34695;SDS011;20918;51.138;17.370;2022-10-19T13:42:24;3.90;;;1.60;;
34695;SDS011;20918;51.138;17.370;2022-10-19T13:45:27;8.45;;;1.90;;
34695;SDS011;20918;51.138;17.370;2022-10-19T13:55:39;4.97;;;1.70;;
34695;SDS011;20918;51.138;17.370;2022-10-19T14:13:05;5.53;;;1.98;;
34695;SDS011;20918;51.138;17.370;2022-10-19T14:16:17;5.78;;;2.60;;
34695;SDS011;20918;51.138;17.370;2022-10-19T14:19:40;4.78;;;2.10;;
34695;SDS011;20918;51.138;17.370;2022-10-19T14:22:52;3.85;;;2.15;;
34695;SDS011;20918;51.138;17.370;2022-10-19T14:25:57;6.40;;;1.90;;
34695;SDS011;20918;51.138;17.370;2022-10-19T14:29:10;4.30;;;2.17;;
34695;SDS011;20918;51.138;17.370;2022-10-19T14:32:11;3.52;;;1.80;;
34695;SDS011;20918;51.138;17.370;2022-10-19T14:35:19;7.85;;;2.17;;
34695;SDS011;20918;51.138;17.370;2022-10-19T14:41:37;2.50;;;1.75;;
34695;SDS011;20918;51.138;17.370;2022-10-19T14:44:39;4.67;;;2.00;;
34695;SDS011;20918;51.138;17.370;2022-10-19T14:47:53;5.20;;;2.20;;
34695;SDS011;20918;51.138;17.370;2022-10-19T14:51:00;4.10;;;1.90;;
34695;SDS011;20918;51.138;17.370;2022-10-19T14:57:35;4.10;;;2.25;;
34695;SDS011;20918;51.138;17.370;2022-10-19T15:00:39;9.70;;;2.58;;
34695;SDS011;20918;51.138;17.370;2022-10-19T15:03:41;4.87;;;1.80;;
34695;SDS011;20918;51.138;17.370;2022-10-19T15:06:44;4.08;;;2.00;;
34695;SDS011;20918;51.138;17.370;2022-10-19T15:09:50;7.40;;;2.20;;
34695;SDS011;20918;51.138;17.370;2022-10-19T15:13:00;4.42;;;2.67;;
34695;SDS011;20918;51.138;17.370;2022-10-19T15:16:03;13.58;;;6.30;;
34695;SDS011;20918;51.138;17.370;2022-10-19T15:19:05;9.00;;;4.50;;
34695;SDS011;20918;51.138;17.370;2022-10-19T15:25:27;7.72;;;2.87;;
34695;SDS011;20918;51.138;17.370;2022-10-19T15:28:37;7.65;;;2.92;;
34695;SDS011;20918;51.138;17.370;2022-10-19T15:31:38;5.47;;;2.52;;
34695;SDS011;20918;51.138;17.370;2022-10-19T15:34:40;6.53;;;2.98;;
34695;SDS011;20918;51.138;17.370;2022-10-19T15:37:45;4.10;;;2.50;;
34695;SDS011;20918;51.138;17.370;2022-10-19T15:40:53;5.20;;;2.80;;
34695;SDS011;20918;51.138;17.370;2022-10-19T15:44:05;4.12;;;2.05;;
34695;SDS011;20918;51.138;17.370;2022-10-19T15:50:30;5.65;;;2.15;;
34695;SDS011;20918;51.138;17.370;2022-10-19T15:53:35;5.25;;;2.60;;
34695;SDS011;20918;51.138;17.370;2022-10-19T15:56:37;6.10;;;2.47;;
34695;SDS011;20918;51.138;17.370;2022-10-19T15:59:39;4.85;;;2.70;;
34695;SDS011;20918;51.138;17.370;2022-10-19T16:02:41;5.60;;;2.80;;
34695;SDS011;20918;51.138;17.370;2022-10-19T16:05:42;7.10;;;4.58;;
34695;SDS011;20918;51.138;17.370;2022-10-19T16:08:44;10.53;;;6.60;;
34695;SDS011;20918;51.138;17.370;2022-10-19T16:11:45;16.42;;;8.83;;
34695;SDS011;20918;51.138;17.370;2022-10-19T16:14:48;13.68;;;8.65;;
34695;SDS011;20918;51.138;17.370;2022-10-19T16:17:50;14.93;;;8.43;;
34695;SDS011;20918;51.138;17.370;2022-10-19T16:20:54;13.95;;;8.50;;
34695;SDS011;20918;51.138;17.370;2022-10-19T16:23:55;13.88;;;8.83;;
34695;SDS011;20918;51.138;17.370;2022-10-19T16:26:57;15.18;;;8.25;;
34695;SDS011;20918;51.138;17.370;2022-10-19T16:30:01;11.90;;;7.25;;
34695;SDS011;20918;51.138;17.370;2022-10-19T16:33:04;13.98;;;6.90;;
34695;SDS011;20918;51.138;17.370;2022-10-19T16:36:06;10.13;;;5.40;;
34695;SDS011;20918;51.138;17.370;2022-10-19T16:39:08;12.03;;;8.10;;
34695;SDS011;20918;51.138;17.370;2022-10-19T16:42:09;11.60;;;6.37;;
34695;SDS011;20918;51.138;17.370;2022-10-19T16:45:10;6.22;;;3.98;;
34695;SDS011;20918;51.138;17.370;2022-10-19T16:48:11;7.75;;;3.50;;
34695;SDS011;20918;51.138;17.370;2022-10-19T16:54:27;7.50;;;4.50;;
34695;SDS011;20918;51.138;17.370;2022-10-19T16:57:29;7.17;;;3.77;;
34695;SDS011;20918;51.138;17.370;2022-10-19T17:00:30;6.05;;;4.03;;
34695;SDS011;20918;51.138;17.370;2022-10-19T17:03:31;6.22;;;3.95;;
34695;SDS011;20918;51.138;17.370;2022-10-19T17:06:33;10.82;;;4.62;;
34695;SDS011;20918;51.138;17.370;2022-10-19T17:09:34;8.10;;;4.50;;
34695;SDS011;20918;51.138;17.370;2022-10-19T17:12:37;7.22;;;4.50;;
34695;SDS011;20918;51.138;17.370;2022-10-19T17:15:41;9.83;;;5.75;;
34695;SDS011;20918;51.138;17.370;2022-10-19T17:18:42;9.30;;;5.97;;
34695;SDS011;20918;51.138;17.370;2022-10-19T17:21:44;9.15;;;6.00;;
34695;SDS011;20918;51.138;17.370;2022-10-19T17:24:45;10.00;;;6.08;;
34695;SDS011;20918;51.138;17.370;2022-10-19T17:27:50;12.28;;;7.20;;
34695;SDS011;20918;51.138;17.370;2022-10-19T17:30:52;13.68;;;7.72;;
34695;SDS011;20918;51.138;17.370;2022-10-19T17:33:53;13.60;;;7.62;;
34695;SDS011;20918;51.138;17.370;2022-10-19T17:36:55;11.12;;;7.05;;
34695;SDS011;20918;51.138;17.370;2022-10-19T17:39:56;14.35;;;7.80;;
34695;SDS011;20918;51.138;17.370;2022-10-19T17:42:59;13.38;;;7.70;;
34695;SDS011;20918;51.138;17.370;2022-10-19T17:46:01;9.50;;;6.83;;
34695;SDS011;20918;51.138;17.370;2022-10-19T17:49:05;13.58;;;7.03;;
34695;SDS011;20918;51.138;17.370;2022-10-19T17:52:07;12.65;;;8.48;;
34695;SDS011;20918;51.138;17.370;2022-10-19T17:55:08;14.65;;;9.13;;
34695;SDS011;20918;51.138;17.370;2022-10-19T17:58:09;16.82;;;10.00;;
34695;SDS011;20918;51.138;17.370;2022-10-19T18:01:10;20.37;;;8.33;;
34695;SDS011;20918;51.138;17.370;2022-10-19T18:04:12;20.30;;;8.70;;
34695;SDS011;20918;51.138;17.370;2022-10-19T18:07:13;33.53;;;13.45;;
34695;SDS011;20918;51.138;17.370;2022-10-19T18:10:14;34.75;;;12.65;;
34695;SDS011;20918;51.138;17.370;2022-10-19T18:13:15;27.30;;;11.28;;
34695;SDS011;20918;51.138;17.370;2022-10-19T18:16:22;25.00;;;10.88;;
34695;SDS011;20918;51.138;17.370;2022-10-19T18:19:23;29.57;;;11.63;;
34695;SDS011;20918;51.138;17.370;2022-10-19T18:22:24;26.15;;;10.55;;
34695;SDS011;20918;51.138;17.370;2022-10-19T18:25:25;19.87;;;9.58;;
34695;SDS011;20918;51.138;17.370;2022-10-19T18:28:33;20.57;;;9.90;;
34695;SDS011;20918;51.138;17.370;2022-10-19T18:31:36;33.60;;;18.27;;
34695;SDS011;20918;51.138;17.370;2022-10-19T18:34:38;25.00;;;14.45;;
34695;SDS011;20918;51.138;17.370;2022-10-19T18:37:40;24.45;;;12.25;;
34695;SDS011;20918;51.138;17.370;2022-10-19T18:40:43;26.65;;;14.05;;
34695;SDS011;20918;51.138;17.370;2022-10-19T18:43:48;33.58;;;14.85;;
34695;SDS011;20918;51.138;17.370;2022-10-19T18:46:51;23.75;;;11.85;;
34695;SDS011;20918;51.138;17.370;2022-10-19T18:49:53;24.60;;;11.43;;
34695;SDS011;20918;51.138;17.370;2022-10-19T18:52:54;29.00;;;15.43;;
34695;SDS011;20918;51.138;17.370;2022-10-19T18:55:56;27.62;;;15.28;;
34695;SDS011;20918;51.138;17.370;2022-10-19T18:58:59;57.45;;;32.42;;
34695;SDS011;20918;51.138;17.370;2022-10-19T19:02:00;56.00;;;29.82;;
34695;SDS011;20918;51.138;17.370;2022-10-19T19:05:01;43.90;;;22.32;;
34695;SDS011;20918;51.138;17.370;2022-10-19T19:08:03;45.12;;;20.85;;
34695;SDS011;20918;51.138;17.370;2022-10-19T19:11:24;34.20;;;17.27;;
34695;SDS011;20918;51.138;17.370;2022-10-19T19:14:19;34.63;;;16.70;;
34695;SDS011;20918;51.138;17.370;2022-10-19T19:17:20;27.45;;;14.53;;
34695;SDS011;20918;51.138;17.370;2022-10-19T19:20:21;28.02;;;15.30;;
34695;SDS011;20918;51.138;17.370;2022-10-19T19:23:23;30.48;;;16.73;;
34695;SDS011;20918;51.138;17.370;2022-10-19T19:26:25;43.87;;;21.60;;
34695;SDS011;20918;51.138;17.370;2022-10-19T19:29:31;30.75;;;16.57;;
34695;SDS011;20918;51.138;17.370;2022-10-19T19:32:33;30.35;;;15.30;;
34695;SDS011;20918;51.138;17.370;2022-10-19T19:35:40;32.50;;;18.15;;
34695;SDS011;20918;51.138;17.370;2022-10-19T19:38:44;43.02;;;22.85;;
34695;SDS011;20918;51.138;17.370;2022-10-19T19:41:46;33.78;;;16.48;;
34695;SDS011;20918;51.138;17.370;2022-10-19T19:44:48;37.13;;;17.85;;
34695;SDS011;20918;51.138;17.370;2022-10-19T19:47:49;45.60;;;28.52;;
34695;SDS011;20918;51.138;17.370;2022-10-19T19:50:50;27.25;;;16.85;;
34695;SDS011;20918;51.138;17.370;2022-10-19T19:53:51;34.98;;;16.85;;
34695;SDS011;20918;51.138;17.370;2022-10-19T19:56:55;30.90;;;17.27;;
34695;SDS011;20918;51.138;17.370;2022-10-19T19:59:57;30.10;;;16.73;;
34695;SDS011;20918;51.138;17.370;2022-10-19T20:02:58;31.02;;;16.07;;